Time;durP1;ratioP1;P1;durP2;ratioP2;P2;SDS_P1;SDS_P2;PMS_P1;PMS_P2;Temp;Humidity;BMP_temperature;BMP_pressure;BME280_temperature;BME280_humidity;BME280_pressure;Samples;Min_cycle;Max_cycle;Signal;HPM_P1;HPM_P2
2023/06/10 00:00:12;;;;;;;;;;;;;;;22.38;58.71;100300.91;7402164;19;1183;-48
2023/06/10 00:02:40;;;;;;;;;;;;;;;22.36;58.71;100302.94;7401655;19;1281;-49
2023/06/10 00:05:09;;;;;;;;;;;;;;;22.36;58.53;100306.50;7401334;19;1602;-48
2023/06/10 00:07:38;;;;;;;;;;;;;;;22.34;58.39;100291.50;7399258;19;1858;-48
2023/06/10 00:10:07;;;;;;;;;;;;;;;22.34;58.58;100319.28;7401416;19;1464;-48
2023/06/10 00:12:38;;;;;;;;;;;;;;;22.19;58.64;100305.59;7401628;19;1605;-49
2023/06/10 00:15:07;;;;;;;;;;;;;;;22.33;58.37;100297.91;7401120;19;1590;-49
2023/06/10 00:17:38;;;;;;;;;;;;;;;22.35;58.58;100309.34;7400055;19;1596;-48
2023/06/10 00:20:08;;;;;;;;;;;;;;;22.33;58.41;100301.44;7401392;19;1237;-48
2023/06/10 00:22:37;;;;;;;;;;;;;;;22.27;58.37;100283.25;7400584;19;1340;-48
2023/06/10 00:25:06;;;;;;;;;;;;;;;22.32;58.72;100293.50;7399063;19;1651;-49
2023/06/10 00:27:37;;;;;;;;;;;;;;;22.19;58.95;100294.00;7399559;19;1857;-49
2023/06/10 00:30:06;;;;;;;;;;;;;;;22.26;58.68;100304.97;7400024;19;1854;-48
2023/06/10 00:32:38;;;;;;;;;;;;;;;22.24;58.92;100294.34;7398643;19;1603;-50
2023/06/10 00:35:07;;;;;;;;;;;;;;;22.18;58.76;100293.16;7400674;19;1622;-48
2023/06/10 00:37:35;;;;;;;;;;;;;;;22.13;58.69;100306.28;7400340;19;1253;-50
2023/06/10 00:40:04;;;;;;;;;;;;;;;22.18;58.99;100297.69;7399297;19;1280;-48
2023/06/10 00:42:32;;;;;;;;;;;;;;;22.25;58.50;100309.50;7397386;19;1577;-48
2023/06/10 00:45:03;;;;;;;;;;;;;;;22.24;58.51;100319.47;7399451;19;1216;-48
2023/06/10 00:47:32;;;;;;;;;;;;;;;22.25;58.72;100304.13;7398424;19;1859;-48
2023/06/10 00:50:01;;;;;;;;;;;;;;;22.18;58.64;100320.09;7400602;19;1606;-48
2023/06/10 00:52:30;;;;;;;;;;;;;;;22.21;58.49;100298.19;7400017;19;1377;-48
2023/06/10 00:54:59;;;;;;;;;;;;;;;22.22;58.47;100310.66;7399665;19;1324;-49
2023/06/10 00:57:29;;;;;;;;;;;;;;;22.16;58.48;100311.34;7399551;19;1230;-48
2023/06/10 00:59:57;;;;;;;;;;;;;;;22.12;58.68;100299.19;7401082;19;1030;-48
2023/06/10 01:02:28;;;;;;;;;;;;;;;22.16;58.83;100310.47;7399399;19;1556;-48
2023/06/10 01:04:57;;;;;;;;;;;;;;;22.12;58.94;100318.03;7399748;19;1548;-48
2023/06/10 01:07:27;;;;;;;;;;;;;;;22.16;58.85;100321.25;7397585;19;1861;-48
2023/06/10 01:09:58;;;;;;;;;;;;;;;22.19;58.56;100313.69;7399453;19;1214;-48
2023/06/10 01:12:31;;;;;;;;;;;;;;;22.21;58.56;100318.91;7398820;19;1535;-48
2023/06/10 01:15:01;;;;;;;;;;;;;;;22.13;58.90;100319.75;7399273;19;1214;-49
2023/06/10 01:17:32;;;;;;;;;;;;;;;22.11;58.83;100308.28;7399209;19;1464;-48
2023/06/10 01:20:02;;;;;;;;;;;;;;;22.16;58.85;100305.97;7397813;19;1711;-48
2023/06/10 01:22:36;;;;;;;;;;;;;;;22.14;59.02;100305.25;7400337;19;1403;-49
2023/06/10 01:25:05;;;;;;;;;;;;;;;22.22;58.85;100310.66;7397122;19;1856;-49
2023/06/10 01:27:39;;;;;;;;;;;;;;;22.29;58.46;100304.63;7398163;19;1849;-48
2023/06/10 01:30:11;;;;;;;;;;;;;;;22.30;58.19;100295.53;7400087;19;1332;-48
2023/06/10 01:32:40;;;;;;;;;;;;;;;22.21;58.56;100313.53;7399788;19;1857;-48
2023/06/10 01:35:10;;;;;;;;;;;;;;;22.11;58.84;100302.91;7399051;19;1866;-48
2023/06/10 01:37:42;;;;;;;;;;;;;;;22.12;59.05;100303.75;7399532;19;1809;-48
2023/06/10 01:40:11;;;;;;;;;;;;;;;22.06;59.25;100316.03;7399819;19;1739;-48
2023/06/10 01:42:40;;;;;;;;;;;;;;;22.17;58.68;100296.84;7398585;19;1386;-48
2023/06/10 01:45:09;;;;;;;;;;;;;;;22.20;58.68;100311.81;7397493;19;1483;-48
2023/06/10 01:47:37;;;;;;;;;;;;;;;22.13;58.75;100303.59;7396413;19;1865;-48
2023/06/10 01:50:05;;;;;;;;;;;;;;;22.08;58.85;100311.31;7398340;19;1543;-49
2023/06/10 01:52:34;;;;;;;;;;;;;;;22.10;58.92;100278.84;7397913;19;1615;-48
2023/06/10 01:55:05;;;;;;;;;;;;;;;22.14;58.60;100297.16;7397268;19;1202;-48
2023/06/10 01:57:34;;;;;;;;;;;;;;;22.10;58.92;100295.81;7396917;19;1493;-48
2023/06/10 02:00:03;;;;;;;;;;;;;;;22.10;58.80;100285.06;7398416;19;1182;-45
2023/06/10 02:02:31;;;;;;;;;;;;;;;22.15;58.67;100282.72;7396028;19;1560;-45
2023/06/10 02:05:00;;;;;;;;;;;;;;;22.22;58.54;100299.03;7397812;19;1536;-46
2023/06/10 02:07:28;;;;;;;;;;;;;;;22.12;58.84;100285.72;7396863;19;1839;-45
2023/06/10 02:09:56;;;;;;;;;;;;;;;22.16;58.59;100299.72;7396676;19;1402;-46
2023/06/10 02:12:27;;;;;;;;;;;;;;;22.20;58.41;100296.53;7395652;19;1423;-47
2023/06/10 02:14:55;;;;;;;;;;;;;;;22.21;58.60;100303.59;7396627;19;1399;-47
2023/06/10 02:17:24;;;;;;;;;;;;;;;22.19;58.73;100294.00;7396442;19;1750;-47
2023/06/10 02:19:56;;;;;;;;;;;;;;;22.23;58.54;100303.44;7398380;19;1470;-46
2023/06/10 02:22:25;;;;;;;;;;;;;;;22.15;58.51;100290.78;7397701;19;1812;-47
2023/06/10 02:24:53;;;;;;;;;;;;;;;22.18;58.57;100303.94;7394842;19;1790;-47
2023/06/10 02:27:23;;;;;;;;;;;;;;;22.22;58.50;100304.41;7397819;19;1841;-46
2023/06/10 02:29:54;;;;;;;;;;;;;;;22.19;58.66;100286.75;7397425;19;1510;-47
2023/06/10 02:32:22;;;;;;;;;;;;;;;22.17;58.71;100296.84;7396895;19;2113;-47
2023/06/10 02:34:50;;;;;;;;;;;;;;;22.21;58.61;100292.81;7398196;19;1433;-47
2023/06/10 02:37:20;;;;;;;;;;;;;;;22.22;58.57;100304.41;7396322;19;1475;-46
2023/06/10 02:39:48;;;;;;;;;;;;;;;22.20;58.89;100301.91;7395917;19;1257;-47
2023/06/10 02:42:16;;;;;;;;;;;;;;;22.17;58.73;100294.16;7395539;19;1214;-47
2023/06/10 02:44:45;;;;;;;;;;;;;;;22.23;58.56;100290.78;7395740;19;1205;-47
2023/06/10 02:47:16;;;;;;;;;;;;;;;22.23;58.31;100282.72;7396093;19;1865;-48
2023/06/10 02:49:44;;;;;;;;;;;;;;;22.23;58.59;100311.50;7395388;19;1195;-47
2023/06/10 02:52:14;;;;;;;;;;;;;;;22.17;58.94;100294.16;7396870;19;1604;-47
2023/06/10 02:54:42;;;;;;;;;;;;;;;22.19;58.64;100288.63;7396830;19;1279;-47
2023/06/10 02:57:10;;;;;;;;;;;;;;;22.30;58.48;100312.53;7395852;19;1206;-47
2023/06/10 02:59:38;;;;;;;;;;;;;;;22.21;58.62;100302.75;7396783;19;1193;-47
2023/06/10 03:02:07;;;;;;;;;;;;;;;22.23;58.41;100317.72;7394890;19;1178;-47
2023/06/10 03:04:38;;;;;;;;;;;;;;;22.20;58.47;100310.00;7395721;19;1461;-46
2023/06/10 03:07:08;;;;;;;;;;;;;;;22.31;58.40;100313.41;7393537;19;1848;-46
2023/06/10 03:09:36;;;;;;;;;;;;;;;22.23;58.59;100303.44;7394691;19;1253;-47
2023/06/10 03:12:05;;;;;;;;;;;;;;;22.26;58.43;100315.75;7395870;19;1548;-47
2023/06/10 03:14:34;;;;;;;;;;;;;;;22.26;58.46;100330.03;7394812;19;1257;-46
2023/06/10 03:17:03;;;;;;;;;;;;;;;22.23;58.41;100317.72;7394834;19;1592;-46
2023/06/10 03:19:33;;;;;;;;;;;;;;;22.32;58.21;100315.94;7395623;19;1510;-46
2023/06/10 03:22:12;;;;;;;;;;;;;;;22.34;58.27;100316.59;7395768;19;1269;-46
2023/06/10 03:24:41;;;;;;;;;;;;;;;22.38;58.01;100322.47;7394301;19;1478;-46
2023/06/10 03:27:10;;;;;;;;;;;;;;;22.33;58.32;100335.63;7395344;19;1873;-47
2023/06/10 03:29:39;;;;;;;;;;;;;;;22.31;58.22;100329.56;7395205;19;1532;-47
2023/06/10 03:32:07;;;;;;;;;;;;;;;22.38;58.06;100333.25;7394639;19;1610;-47
2023/06/10 03:34:36;;;;;;;;;;;;;;;22.36;58.21;100330.75;7395171;19;1549;-46
2023/06/10 03:37:04;;;;;;;;;;;;;;;22.37;58.15;100323.50;7395223;19;1475;-47
2023/06/10 03:39:35;;;;;;;;;;;;;;;22.46;58.04;100335.09;7394092;19;1467;-50
2023/06/10 03:42:04;;;;;;;;;;;;;;;22.39;58.16;100321.47;7394701;19;1720;-47
2023/06/10 03:44:33;;;;;;;;;;;;;;;22.38;58.25;100320.63;7395576;19;1493;-47
2023/06/10 03:47:02;;;;;;;;;;;;;;;22.40;57.95;100323.13;7395432;19;1857;-46
2023/06/10 03:49:30;;;;;;;;;;;;;;;22.48;58.09;100325.00;7395285;19;1777;-46
2023/06/10 03:51:58;;;;;;;;;;;;;;;22.44;57.96;100325.34;7395201;19;1404;-46
2023/06/10 03:54:27;;;;;;;;;;;;;;;22.53;57.52;100334.25;7395901;19;1399;-46
2023/06/10 03:56:58;;;;;;;;;;;;;;;22.43;57.72;100312.88;7396236;19;1020;-47
2023/06/10 03:59:26;;;;;;;;;;;;;;;22.55;57.67;100339.47;7395066;19;1467;-48
2023/06/10 04:01:54;;;;;;;;;;;;;;;22.45;58.04;100345.03;7393064;19;1589;-47
2023/06/10 04:04:22;;;;;;;;;;;;;;;22.43;57.86;100350.59;7394590;19;1865;-46
2023/06/10 04:06:51;;;;;;;;;;;;;;;22.50;57.97;100345.38;7392808;19;1478;-47
2023/06/10 04:09:19;;;;;;;;;;;;;;;22.45;57.79;100342.34;7391207;19;1855;-47
2023/06/10 04:11:47;;;;;;;;;;;;;;;22.47;58.04;100351.09;7393174;19;1165;-46
2023/06/10 04:14:18;;;;;;;;;;;;;;;22.44;58.17;100340.66;7393353;19;1233;-47
2023/06/10 04:16:47;;;;;;;;;;;;;;;22.44;57.84;100338.81;7394559;19;1558;-46
2023/06/10 04:19:15;;;;;;;;;;;;;;;22.48;57.81;100338.47;7399980;19;1711;-48
2023/06/10 04:21:43;;;;;;;;;;;;;;;22.54;57.79;100351.25;7402036;19;1846;-46
2023/06/10 04:24:12;;;;;;;;;;;;;;;22.49;57.99;100337.47;7400480;19;1822;-47
2023/06/10 04:26:40;;;;;;;;;;;;;;;22.47;57.81;100356.50;7401392;19;1260;-46
2023/06/10 04:29:08;;;;;;;;;;;;;;;22.48;57.94;100344.69;7398141;19;1860;-47
2023/06/10 04:31:39;;;;;;;;;;;;;;;22.48;57.76;100347.38;7400533;19;1361;-46
2023/06/10 04:34:08;;;;;;;;;;;;;;;22.48;58.02;100360.84;7400756;19;1628;-46
2023/06/10 04:36:36;;;;;;;;;;;;;;;22.44;58.12;100351.44;7399641;19;1472;-47
2023/06/10 04:39:05;;;;;;;;;;;;;;;22.48;57.74;100344.69;7400192;19;1162;-47
2023/06/10 04:41:33;;;;;;;;;;;;;;;22.58;57.78;100340.00;7399934;19;1544;-46
2023/06/10 04:44:02;;;;;;;;;;;;;;;22.67;58.20;100338.13;7400390;19;1619;-46
2023/06/10 04:46:31;;;;;;;;;;;;;;;22.59;58.18;100338.97;7400655;19;1441;-46
2023/06/10 04:49:02;;;;;;;;;;;;;;;22.62;58.52;100345.88;7399542;19;1865;-46
2023/06/10 04:51:31;;;;;;;;;;;;;;;22.68;58.34;100341.66;7400573;19;1967;-47
2023/06/10 04:54:02;;;;;;;;;;;;;;;22.76;58.30;100349.72;7400325;19;1202;-47
2023/06/10 04:56:30;;;;;;;;;;;;;;;22.78;58.12;100343.16;7399958;19;1541;-48
2023/06/10 04:58:59;;;;;;;;;;;;;;;22.76;58.26;100344.34;7398628;19;1253;-46
2023/06/10 05:01:27;;;;;;;;;;;;;;;22.78;58.42;100348.56;7400025;19;1488;-46
2023/06/10 05:03:55;;;;;;;;;;;;;;;22.70;58.51;100334.22;7399277;19;1252;-46
2023/06/10 05:06:26;;;;;;;;;;;;;;;22.64;58.79;100333.91;7399420;19;1178;-46
2023/06/10 05:08:55;;;;;;;;;;;;;;;22.61;58.68;100331.56;7397495;19;1849;-47
2023/06/10 05:11:23;;;;;;;;;;;;;;;22.57;59.09;100342.84;7396415;19;1332;-47
2023/06/10 05:13:51;;;;;;;;;;;;;;;22.50;59.20;100334.63;7400331;19;1036;-47
2023/06/10 05:16:19;;;;;;;;;;;;;;;22.65;58.59;100337.44;7400011;19;1976;-47
2023/06/10 05:18:48;;;;;;;;;;;;;;;22.72;58.92;100337.59;7398699;19;1866;-46
2023/06/10 05:21:16;;;;;;;;;;;;;;;22.70;58.57;100339.63;7399306;19;1533;-46
2023/06/10 05:23:47;;;;;;;;;;;;;;;22.71;59.02;100355.63;7398214;19;1549;-46
2023/06/10 05:26:16;;;;;;;;;;;;;;;22.77;58.65;100343.34;7399623;19;1556;-46
2023/06/10 05:28:44;;;;;;;;;;;;;;;22.73;58.90;100326.66;7395848;19;1854;-46
2023/06/10 05:31:12;;;;;;;;;;;;;;;22.74;58.90;100322.97;7398333;19;1436;-47
2023/06/10 05:33:41;;;;;;;;;;;;;;;22.76;58.89;100334.41;7399017;19;1506;-47
2023/06/10 05:36:09;;;;;;;;;;;;;;;22.67;59.16;100338.13;7399243;19;1259;-48
2023/06/10 05:38:38;;;;;;;;;;;;;;;22.67;59.38;100339.97;7398437;19;1229;-47
2023/06/10 05:41:09;;;;;;;;;;;;;;;22.66;59.24;100340.97;7398579;19;1148;-47
2023/06/10 05:43:38;;;;;;;;;;;;;;;22.75;59.29;100348.06;7398110;19;1028;-48
2023/06/10 05:46:06;;;;;;;;;;;;;;;22.74;59.19;100343.66;7397453;19;1485;-47
2023/06/10 05:48:34;;;;;;;;;;;;;;;22.74;59.13;100346.34;7397410;19;1870;-48
2023/06/10 05:51:02;;;;;;;;;;;;;;;22.75;59.44;100338.09;7396633;19;1279;-56
2023/06/10 05:53:30;;;;;;;;;;;;;;;22.78;59.28;100353.09;7395881;19;1554;-47
2023/06/10 05:55:59;;;;;;;;;;;;;;;22.79;59.45;100347.53;7397953;19;1527;-47
2023/06/10 05:58:30;;;;;;;;;;;;;;;22.78;59.77;100340.47;7397103;19;1474;-47
2023/06/10 06:00:59;;;;;;;;;;;;;;;22.78;59.88;100350.41;7395832;19;1255;-48
2023/06/10 06:03:28;;;;;;;;;;;;;;;22.76;60.16;100347.03;7396631;19;1111;-47
2023/06/10 06:05:56;;;;;;;;;;;;;;;22.79;60.02;100350.22;7398472;19;1535;-47
2023/06/10 06:08:25;;;;;;;;;;;;;;;22.77;60.30;100352.25;7397544;19;1860;-48
2023/06/10 06:10:53;;;;;;;;;;;;;;;22.82;60.00;100351.75;7396376;19;1283;-48
2023/06/10 06:13:21;;;;;;;;;;;;;;;22.87;59.99;100351.25;7394975;19;1198;-48
2023/06/10 06:15:52;;;;;;;;;;;;;;;22.56;61.00;100354.63;7397124;19;1560;-46
2023/06/10 06:18:21;;;;;;;;;;;;;;;22.53;61.31;100361.22;7397111;19;1751;-47
2023/06/10 06:20:49;;;;;;;;;;;;;;;22.51;62.04;100352.44;7396570;19;1569;-47
2023/06/10 06:23:17;;;;;;;;;;;;;;;22.69;61.95;100357.66;7397254;19;1257;-47
2023/06/10 06:25:45;;;;;;;;;;;;;;;22.42;62.17;100361.53;7395549;19;1525;-47
2023/06/10 06:28:14;;;;;;;;;;;;;;;22.40;62.89;100360.84;7395054;19;1847;-47
2023/06/10 06:30:42;;;;;;;;;;;;;;;22.39;62.62;100367.28;7396368;19;1235;-47
2023/06/10 06:33:13;;;;;;;;;;;;;;;22.77;62.08;100359.50;7398713;19;1712;-47
2023/06/10 06:35:41;;;;;;;;;;;;;;;22.83;61.71;100346.19;7397118;19;1404;-47
2023/06/10 06:38:09;;;;;;;;;;;;;;;22.82;62.06;100343.69;7398668;19;1856;-47
2023/06/10 06:40:38;;;;;;;;;;;;;;;22.67;62.59;100345.38;7394264;19;1848;-46
2023/06/10 06:43:06;;;;;;;;;;;;;;;22.84;61.90;100347.03;7395758;19;1530;-46
2023/06/10 06:45:34;;;;;;;;;;;;;;;22.84;61.86;100334.41;7396662;19;1925;-46
2023/06/10 06:48:02;;;;;;;;;;;;;;;22.99;61.59;100348.00;7395927;19;1859;-47
2023/06/10 06:50:33;;;;;;;;;;;;;;;22.83;62.31;100337.25;7395156;19;1306;-46
2023/06/10 06:53:02;;;;;;;;;;;;;;;22.77;62.31;100348.72;7389871;19;1358;-46
2023/06/10 06:55:30;;;;;;;;;;;;;;;22.61;63.23;100350.41;7387727;19;1432;-46
2023/06/10 06:58:01;;;;;;;;;;;;;;;22.74;62.77;100346.34;7387843;19;1266;-47
2023/06/10 07:00:29;;;;;;;;;;;;;;;22.92;61.83;100347.03;7392633;19;1141;-49
2023/06/10 07:02:57;;;;;;;;;;;;;;;22.91;62.03;100326.44;7394498;19;1589;-48
2023/06/10 07:05:27;;;;;;;;;;;;;;;22.89;62.25;100331.19;7394020;19;1559;-47
2023/06/10 07:07:57;;;;;;;;;;;;;;;22.84;62.12;100330.88;7393802;19;1595;-48
2023/06/10 07:10:26;;;;;;;;;;;;;;;22.81;62.14;100331.19;7391412;19;1842;-47
2023/06/10 07:12:55;;;;;;;;;;;;;;;22.49;63.22;100343.69;7393307;19;1386;-46
2023/06/10 07:15:23;;;;;;;;;;;;;;;22.62;63.30;100335.94;7393775;19;1419;-47
2023/06/10 07:17:52;;;;;;;;;;;;;;;22.40;63.73;100326.69;7394196;19;1534;-48
2023/06/10 07:20:20;;;;;;;;;;;;;;;22.49;63.22;100338.31;7393260;19;1538;-48
2023/06/10 07:22:48;;;;;;;;;;;;;;;22.60;62.95;100337.97;7393923;19;1269;-48
2023/06/10 07:25:19;;;;;;;;;;;;;;;22.67;62.64;100335.44;7391616;19;1508;-48
2023/06/10 07:27:48;;;;;;;;;;;;;;;22.78;62.42;100335.09;7394630;19;1206;-47
2023/06/10 07:30:16;;;;;;;;;;;;;;;22.99;61.49;100329.13;7391998;19;1836;-48
2023/06/10 07:32:44;;;;;;;;;;;;;;;22.80;62.17;100334.88;7390020;19;1575;-47
2023/06/10 07:35:13;;;;;;;;;;;;;;;22.66;62.33;100338.28;7394497;19;1945;-47
2023/06/10 07:37:41;;;;;;;;;;;;;;;22.83;62.05;100327.31;7395674;19;1727;-48
2023/06/10 07:40:10;;;;;;;;;;;;;;;22.73;62.39;100326.66;7395660;19;1668;-48
2023/06/10 07:42:41;;;;;;;;;;;;;;;22.98;61.40;100332.03;7394240;19;1723;-48
2023/06/10 07:45:10;;;;;;;;;;;;;;;23.07;61.37;100330.16;7394235;19;1394;-48
2023/06/10 07:47:38;;;;;;;;;;;;;;;23.03;61.62;100333.19;7393798;19;1884;-48
2023/06/10 07:50:07;;;;;;;;;;;;;;;23.09;61.51;100345.16;7390908;19;1852;-47
2023/06/10 07:52:35;;;;;;;;;;;;;;;23.02;61.40;100328.81;7395869;19;1845;-48
2023/06/10 07:55:03;;;;;;;;;;;;;;;22.81;62.31;100333.88;7400351;19;1875;-47
2023/06/10 07:57:34;;;;;;;;;;;;;;;22.72;62.56;100326.81;7399220;19;1476;-48
2023/06/10 08:00:06;;;;;;;;;;;;;;;22.70;62.74;100331.53;7399306;19;1483;-48
2023/06/10 08:02:34;;;;;;;;;;;;;;;22.88;62.41;100317.84;7396603;19;1443;-47
2023/06/10 08:05:02;;;;;;;;;;;;;;;22.66;62.73;100330.19;7400819;19;1289;-48
2023/06/10 08:07:31;;;;;;;;;;;;;;;22.91;61.79;100326.44;7400963;19;1183;-48
2023/06/10 08:09:59;;;;;;;;;;;;;;;22.86;62.21;100330.66;7397022;19;1849;-48
2023/06/10 08:12:28;;;;;;;;;;;;;;;22.86;62.14;100334.22;7398904;19;1528;-47
2023/06/10 08:14:56;;;;;;;;;;;;;;;22.87;62.22;100322.41;7397792;19;1323;-48
2023/06/10 08:17:27;;;;;;;;;;;;;;;22.64;62.60;100330.34;7398485;19;1562;-48
2023/06/10 08:19:55;;;;;;;;;;;;;;;23.11;61.35;100320.72;7398600;19;1148;-47
2023/06/10 08:22:23;;;;;;;;;;;;;;;22.89;62.97;100324.94;7398663;19;1466;-48
2023/06/10 08:24:52;;;;;;;;;;;;;;;22.70;63.77;100318.06;7396892;19;1947;-46
2023/06/10 08:27:20;;;;;;;;;;;;;;;22.90;63.67;100319.41;7396890;19;1667;-47
2023/06/10 08:29:48;;;;;;;;;;;;;;;23.27;62.21;100309.84;7397844;19;1860;-48
2023/06/10 08:32:17;;;;;;;;;;;;;;;23.41;62.05;100321.78;7399269;19;1320;-47
2023/06/10 08:34:47;;;;;;;;;;;;;;;23.38;61.53;100320.28;7399396;19;1427;-47
2023/06/10 08:37:16;;;;;;;;;;;;;;;23.11;63.74;100316.16;7396627;19;1907;-47
2023/06/10 08:39:44;;;;;;;;;;;;;;;23.16;63.23;100321.03;7399457;19;1349;-47
2023/06/10 08:42:17;;;;;;;;;;;;;;;23.07;63.37;100313.97;7398904;19;1424;-47
2023/06/10 08:44:45;;;;;;;;;;;;;;;22.99;63.77;100314.81;7398776;19;1740;-47
2023/06/10 08:47:16;;;;;;;;;;;;;;;22.91;65.12;100326.44;7399834;19;1238;-48
2023/06/10 08:49:46;;;;;;;;;;;;;;;22.73;65.14;100317.72;7396825;19;1847;-48
2023/06/10 08:52:18;;;;;;;;;;;;;;;22.72;64.86;100318.72;7397362;19;1505;-48
2023/06/10 08:54:51;;;;;;;;;;;;;;;22.68;64.56;100312.00;7399129;19;1948;-47
2023/06/10 08:57:21;;;;;;;;;;;;;;;22.73;64.78;100307.78;7398832;19;1485;-47
2023/06/10 08:59:49;;;;;;;;;;;;;;;22.67;65.19;100319.25;7399401;19;1191;-47
2023/06/10 09:02:19;;;;;;;;;;;;;;;22.58;66.03;100321.13;7396485;19;1540;-47
2023/06/10 09:04:48;;;;;;;;;;;;;;;22.59;65.02;100303.94;7393905;19;1623;-47
2023/06/10 09:07:19;;;;;;;;;;;;;;;22.50;65.07;100299.59;7398317;19;1855;-47
2023/06/10 09:09:48;;;;;;;;;;;;;;;22.47;65.34;100299.91;7397050;19;1850;-47
2023/06/10 09:12:16;;;;;;;;;;;;;;;22.48;65.46;100309.66;7397183;19;1727;-47
2023/06/10 09:14:45;;;;;;;;;;;;;;;22.50;65.63;100302.28;7399041;19;1794;-47
2023/06/10 09:17:14;;;;;;;;;;;;;;;22.49;65.36;100295.19;7398204;19;1379;-48
2023/06/10 09:19:42;;;;;;;;;;;;;;;22.49;65.26;100305.97;7396730;19;1442;-48
2023/06/10 09:22:11;;;;;;;;;;;;;;;22.54;65.58;100305.44;7397850;19;1727;-47
2023/06/10 09:24:42;;;;;;;;;;;;;;;22.50;65.24;100296.88;7395948;19;1795;-47
2023/06/10 09:27:11;;;;;;;;;;;;;;;22.49;65.54;100295.19;7399551;19;960;-46
2023/06/10 09:29:49;;;;;;;;;;;;;;;22.64;65.00;100295.31;7391789;19;1865;-47
2023/06/10 09:32:19;;;;;;;;;;;;;;;22.85;64.55;100305.56;7397557;19;1519;-47
2023/06/10 09:34:50;;;;;;;;;;;;;;;22.88;63.77;100282.81;7396701;19;1236;-47
2023/06/10 09:37:22;;;;;;;;;;;;;;;22.86;64.24;100274.06;7395646;19;1496;-51
2023/06/10 09:40:05;;;;;;;;;;;;;;;23.12;61.72;100284.63;7395883;19;1584;-50
2023/06/10 09:42:41;;;;;;;;;;;;;;;22.70;63.02;100281.19;7395235;19;1299;-51
2023/06/10 09:45:10;;;;;;;;;;;;;;;22.64;61.92;100280.03;7395541;19;1377;-51
2023/06/10 09:47:38;;;;;;;;;;;;;;;22.82;61.66;100284.38;7395054;19;1959;-51
2023/06/10 09:50:07;;;;;;;;;;;;;;;22.91;62.13;100277.91;7394899;19;1845;-51
2023/06/10 09:52:36;;;;;;;;;;;;;;;22.94;61.76;100263.25;7395570;19;1509;-48
2023/06/10 09:55:04;;;;;;;;;;;;;;;23.10;61.04;100265.06;7396625;19;1509;-50
2023/06/10 09:57:35;;;;;;;;;;;;;;;22.96;61.85;100264.78;7395604;19;1276;-51
2023/06/10 10:00:12;;;;;;;;;;;;;;;22.75;62.39;100262.63;7395711;19;1563;-50
2023/06/10 10:02:47;;;;;;;;;;;;;;;22.98;62.00;100270.00;7394147;19;1244;-51
2023/06/10 10:05:15;;;;;;;;;;;;;;;23.18;61.55;100262.38;7394567;19;1077;-50
2023/06/10 10:07:44;;;;;;;;;;;;;;;23.21;61.18;100251.22;7395030;19;1477;-50
2023/06/10 10:10:13;;;;;;;;;;;;;;;23.20;61.36;100257.63;7395906;19;1849;-51
2023/06/10 10:12:42;;;;;;;;;;;;;;;23.25;61.23;100252.53;7396046;19;1548;-51
2023/06/10 10:15:14;;;;;;;;;;;;;;;23.27;61.12;100255.06;7394915;19;1556;-51
2023/06/10 10:17:43;;;;;;;;;;;;;;;23.27;60.94;100239.72;7393729;19;1123;-51
2023/06/10 10:20:15;;;;;;;;;;;;;;;23.31;60.86;100284.19;7395152;19;1448;-51
2023/06/10 10:22:45;;;;;;;;;;;;;;;23.31;60.86;100232.09;7394105;19;1475;-50
2023/06/10 10:25:16;;;;;;;;;;;;;;;23.21;61.20;100253.91;7393459;19;1311;-50
2023/06/10 10:27:46;;;;;;;;;;;;;;;23.33;61.01;100239.00;7395719;19;1415;-50
2023/06/10 10:30:19;;;;;;;;;;;;;;;23.37;60.32;100244.88;7394174;19;1929;-50
2023/06/10 10:32:54;;;;;;;;;;;;;;;23.33;60.46;100244.41;7393993;19;1399;-50
2023/06/10 10:35:24;;;;;;;;;;;;;;;23.22;61.10;100236.72;7395412;19;1372;-50
2023/06/10 10:37:54;;;;;;;;;;;;;;;23.30;60.85;100246.59;7396152;19;1475;-51
2023/06/10 10:40:24;;;;;;;;;;;;;;;23.26;60.41;100251.53;7394953;19;1818;-51
2023/06/10 10:42:52;;;;;;;;;;;;;;;23.00;60.34;100228.34;7394888;19;1443;-51
2023/06/10 10:45:24;;;;;;;;;;;;;;;23.34;60.49;100229.91;7394427;19;1470;-50
2023/06/10 10:47:55;;;;;;;;;;;;;;;23.32;60.21;100226.53;7394703;19;1517;-51
2023/06/10 10:50:24;;;;;;;;;;;;;;;23.37;59.84;100217.91;7393521;19;1867;-50
2023/06/10 10:52:57;;;;;;;;;;;;;;;23.25;60.57;100214.78;7395117;19;1125;-50
2023/06/10 10:55:26;;;;;;;;;;;;;;;22.95;61.30;100224.50;7392764;19;1320;-50
2023/06/10 10:57:59;;;;;;;;;;;;;;;23.10;60.85;100219.22;7393782;19;1305;-51
2023/06/10 11:00:31;;;;;;;;;;;;;;;22.94;60.88;100215.56;7395266;19;1854;-51
2023/06/10 11:03:00;;;;;;;;;;;;;;;22.77;61.53;100206.69;7395118;19;1805;-50
2023/06/10 11:05:39;;;;;;;;;;;;;;;22.92;61.15;100205.97;7395653;19;1415;-50
2023/06/10 11:08:08;;;;;;;;;;;;;;;23.09;60.99;100206.78;7395161;19;1593;-50
2023/06/10 11:10:37;;;;;;;;;;;;;;;23.06;61.35;100189.09;7393019;19;1838;-63
2023/06/10 11:13:09;;;;;;;;;;;;;;;23.00;61.49;100200.56;7394637;19;1268;-51
2023/06/10 11:15:46;;;;;;;;;;;;;;;22.87;61.62;100201.09;7394721;19;1427;-50
2023/06/10 11:18:25;;;;;;;;;;;;;;;22.79;62.09;100203.81;7394683;19;1723;-51
2023/06/10 11:20:54;;;;;;;;;;;;;;;22.77;62.17;100197.78;7395186;19;1801;-50
2023/06/10 11:23:37;;;;;;;;;;;;;;;22.78;62.27;100199.44;7393365;19;1424;-49
2023/06/10 11:26:15;;;;;;;;;;;;;;;22.77;62.49;100206.69;7388916;19;1761;-49
2023/06/10 11:29:20;;;;;;;;;;;;;;;22.76;62.63;100194.25;6853899;19;10000798;-50
2023/06/10 11:31:52;;;;;;;;;;;;;;;22.75;62.62;100181.75;7386116;19;2294;-49
2023/06/10 11:34:26;;;;;;;;;;;;;;;22.74;62.66;100180.09;7391828;19;1495;-50
2023/06/10 11:36:55;;;;;;;;;;;;;;;22.71;62.55;100210.09;7393617;19;1421;-51
2023/06/10 11:39:26;;;;;;;;;;;;;;;22.71;62.57;100179.59;7395388;19;1544;-51
2023/06/10 11:41:55;;;;;;;;;;;;;;;22.65;62.55;100173.06;7394063;19;1457;-51
2023/06/10 11:44:23;;;;;;;;;;;;;;;22.62;62.64;100166.16;7393037;19;1640;-51
2023/06/10 11:46:55;;;;;;;;;;;;;;;22.60;62.71;100183.50;7394245;19;1604;-50
2023/06/10 11:49:25;;;;;;;;;;;;;;;22.56;63.01;100174.94;7394674;19;1675;-62
2023/06/10 11:51:53;;;;;;;;;;;;;;;22.55;63.02;100159.78;7394080;19;1942;-50
2023/06/10 11:54:21;;;;;;;;;;;;;;;22.58;62.81;100170.22;7392709;19;1907;-49
2023/06/10 11:56:50;;;;;;;;;;;;;;;22.55;62.99;100154.38;7394577;19;1585;-50
2023/06/10 11:59:19;;;;;;;;;;;;;;;22.53;62.89;100167.19;7394369;19;1895;-52
2023/06/10 12:01:48;;;;;;;;;;;;;;;22.54;62.79;100155.41;7394560;19;1683;-50
2023/06/10 12:04:18;;;;;;;;;;;;;;;22.69;62.55;100142.03;7392812;19;1479;-51
2023/06/10 12:06:47;;;;;;;;;;;;;;;22.61;62.87;100151.00;7394001;19;1597;-50
2023/06/10 12:09:17;;;;;;;;;;;;;;;22.95;61.83;100144.44;7394347;19;1517;-51
2023/06/10 12:11:46;;;;;;;;;;;;;;;22.90;61.48;100148.66;7392256;19;1858;-51
2023/06/10 12:14:14;;;;;;;;;;;;;;;22.73;61.91;100140.66;7393056;19;1825;-50
2023/06/10 12:16:42;;;;;;;;;;;;;;;22.83;61.76;100130.50;7388261;19;2675;-51
2023/06/10 12:19:11;;;;;;;;;;;;;;;22.98;61.34;100149.50;7392660;19;1436;-50
2023/06/10 12:21:42;;;;;;;;;;;;;;;23.02;61.33;100145.44;7389291;19;1852;-50
2023/06/10 12:24:11;;;;;;;;;;;;;;;22.90;61.73;100141.44;7388641;19;1665;-51
2023/06/10 12:26:44;;;;;;;;;;;;;;;22.84;61.71;100129.50;7392624;19;2302;-50
2023/06/10 12:29:20;;;;;;;;;;;;;;;22.98;61.20;100133.31;7390387;19;2249;-51
2023/06/10 12:32:02;;;;;;;;;;;;;;;23.18;60.78;100125.63;7389100;19;1869;-51
2023/06/10 12:34:31;;;;;;;;;;;;;;;23.23;60.44;100130.47;7391968;19;1497;-51
2023/06/10 12:37:04;;;;;;;;;;;;;;;23.22;60.43;100124.25;7394611;19;1201;-50
2023/06/10 12:39:32;;;;;;;;;;;;;;;23.30;60.61;100126.06;7389849;19;1468;-51
2023/06/10 12:42:02;;;;;;;;;;;;;;;23.27;60.66;100121.00;7391317;19;1565;-51
2023/06/10 12:44:34;;;;;;;;;;;;;;;23.29;60.38;100124.38;7391652;19;1542;-52
2023/06/10 12:47:02;;;;;;;;;;;;;;;23.27;60.33;100118.31;7393121;19;1450;-51
2023/06/10 12:49:31;;;;;;;;;;;;;;;23.27;60.38;100114.78;7393358;19;1498;-51
2023/06/10 12:51:59;;;;;;;;;;;;;;;23.20;60.53;100115.50;7390781;19;1859;-50
2023/06/10 12:54:30;;;;;;;;;;;;;;;23.17;60.77;100115.84;7390103;19;1374;-51
2023/06/10 12:56:58;;;;;;;;;;;;;;;23.03;60.90;100109.38;7391711;19;1925;-50